Time;durP1;ratioP1;P1;durP2;ratioP2;P2;SDS_P1;SDS_P2;PMS_P1;PMS_P2;Temp;Humidity;BMP_temperature;BMP_pressure;BME280_temperature;BME280_humidity;BME280_pressure;Samples;Min_cycle;Max_cycle;Signal;HPM_P1;HPM_P2
2021/05/27 00:01:19;;;;;;;0.10;0.10;;;;;;;8.91;93.72;100742.47;10544870;28;20030;-66
2021/05/27 00:06:20;;;;;;;0.10;0.10;;;;;;;8.87;93.24;100741.91;10557342;28;20016;-66
2021/05/27 00:11:20;;;;;;;0.10;0.10;;;;;;;8.83;92.77;100737.88;10550553;28;20485;-66
2021/05/27 00:16:20;;;;;;;0.10;0.10;;;;;;;8.78;91.73;100737.50;10551799;28;20396;-66
2021/05/27 00:21:21;;;;;;;0.10;0.10;;;;;;;8.74;92.87;100742.28;10560106;28;20099;-66
2021/05/27 00:26:21;;;;;;;0.10;0.10;;;;;;;8.71;92.36;100736.44;10567936;28;20014;-65
2021/05/27 00:31:22;;;;;;;0.10;0.10;;;;;;;8.68;93.34;100731.41;10551369;28;20028;-66
2021/05/27 00:36:22;;;;;;;0.10;0.10;;;;;;;8.67;93.38;100732.38;10562839;28;20432;-66
2021/05/27 00:41:22;;;;;;;0.10;0.10;;;;;;;8.68;94.11;100736.72;10545459;28;20023;-67
2021/05/27 00:46:23;;;;;;;0.10;0.10;;;;;;;8.71;94.48;100729.28;10561039;28;20482;-67
2021/05/27 00:51:24;;;;;;;0.00;0.00;;;;;;;8.74;94.05;100734.31;10537691;28;20152;-66
2021/05/27 00:56:26;;;;;;;0.10;0.10;;;;;;;8.75;93.70;100743.09;10558084;28;20436;-67
2021/05/27 01:01:26;;;;;;;0.10;0.10;;;;;;;8.76;93.45;100737.66;10557370;28;20051;-65
2021/05/27 01:06:27;;;;;;;0.00;0.00;;;;;;;8.76;93.83;100728.88;10547001;28;20108;-66
2021/05/27 01:11:27;;;;;;;0.10;0.10;;;;;;;8.76;93.59;100731.50;10545005;28;20262;-66
2021/05/27 01:16:27;;;;;;;0.10;0.10;;;;;;;8.75;93.27;100729.81;10550676;28;20096;-66
2021/05/27 01:21:32;;;;;;;0.10;0.10;;;;;;;8.75;94.37;100733.31;10552056;28;20035;-66
2021/05/27 01:26:33;;;;;;;0.00;0.00;;;;;;;8.75;93.89;100735.97;10558188;28;20016;-66
2021/05/27 01:31:33;;;;;;;0.10;0.10;;;;;;;8.76;93.48;100742.97;10569645;28;20407;-66
2021/05/27 01:36:33;;;;;;;0.00;0.00;;;;;;;8.75;93.50;100732.47;10556144;28;20107;-66
2021/05/27 01:41:34;;;;;;;0.10;0.10;;;;;;;8.71;92.42;100747.06;10566701;28;20114;-66
2021/05/27 01:46:34;;;;;;;0.10;0.10;;;;;;;8.69;92.49;100741.88;10555374;28;20250;-67
2021/05/27 01:51:34;;;;;;;0.10;0.10;;;;;;;8.69;92.75;100743.69;10569317;28;20031;-66
2021/05/27 01:56:34;;;;;;;0.10;0.10;;;;;;;8.68;92.18;100745.53;10554913;28;20670;-67
2021/05/27 02:01:35;;;;;;;0.03;0.03;;;;;;;8.65;93.00;100740.50;10560758;28;20027;-66
2021/05/27 02:06:35;;;;;;;0.10;0.10;;;;;;;8.62;92.11;100738.16;10554693;28;20052;-66
2021/05/27 02:11:40;;;;;;;0.00;0.00;;;;;;;8.58;91.57;100737.63;10573143;22;20140;-71
2021/05/27 02:16:43;;;;;;;0.10;0.10;;;;;;;8.53;92.02;100717.81;10577672;28;20024;-70
2021/05/27 02:21:44;;;;;;;0.10;0.10;;;;;;;8.48;92.38;100709.44;10556848;28;20031;-70
2021/05/27 02:26:45;;;;;;;0.10;0.10;;;;;;;8.46;92.60;100708.75;10564967;28;20470;-70
2021/05/27 02:31:45;;;;;;;0.10;0.10;;;;;;;8.46;91.37;100716.72;10565958;28;20064;-69
2021/05/27 02:36:45;;;;;;;0.10;0.10;;;;;;;8.45;92.06;100707.94;10557547;28;20051;-70
2021/05/27 02:41:46;;;;;;;0.00;0.00;;;;;;;8.44;91.49;100703.63;10558861;28;20023;-70
2021/05/27 02:46:46;;;;;;;0.10;0.10;;;;;;;8.44;91.41;100697.47;10557219;28;20273;-70
2021/05/27 02:51:47;;;;;;;0.10;0.10;;;;;;;8.43;91.77;100703.75;10557713;28;20394;-70
2021/05/27 02:56:47;;;;;;;0.05;0.05;;;;;;;8.43;91.91;100711.72;10565198;28;20140;-70
2021/05/27 03:01:48;;;;;;;0.00;0.00;;;;;;;8.41;91.93;100703.91;10533888;28;20385;-70
2021/05/27 03:06:48;;;;;;;0.10;0.10;;;;;;;8.40;92.62;100707.53;10538946;28;20270;-71
2021/05/27 03:11:53;;;;;;;0.10;0.10;;;;;;;8.39;93.73;100714.66;10568608;28;20036;-70
2021/05/27 03:16:53;;;;;;;0.10;0.10;;;;;;;8.41;93.26;100709.22;10560124;28;20027;-69
2021/05/27 03:21:53;;;;;;;0.10;0.10;;;;;;;8.44;94.07;100711.56;10568310;28;20094;-70
2021/05/27 03:26:54;;;;;;;0.00;0.00;;;;;;;8.49;94.03;100717.25;10554283;28;20129;-70
2021/05/27 03:31:54;;;;;;;0.10;0.10;;;;;;;8.53;94.32;100723.13;10559186;28;20056;-70
2021/05/27 03:36:54;;;;;;;0.10;0.10;;;;;;;8.54;94.23;100719.47;10551607;28;20490;-69
2021/05/27 03:41:55;;;;;;;0.10;0.10;;;;;;;8.56;94.42;100722.81;10544674;28;20027;-71
2021/05/27 03:46:55;;;;;;;0.10;0.10;;;;;;;8.60;94.10;100740.13;10552182;28;20024;-71
2021/05/27 03:51:55;;;;;;;0.00;0.00;;;;;;;8.63;94.02;100737.16;10561560;28;20057;-70
2021/05/27 03:56:55;;;;;;;0.10;0.10;;;;;;;8.69;94.20;100739.22;10554775;28;20041;-70
2021/05/27 04:01:56;;;;;;;0.10;0.10;;;;;;;8.76;93.93;100750.09;10555080;28;20015;-68
2021/05/27 04:07:12;;;;;;;0.10;0.10;;;;;;;8.80;93.49;100760.25;10571317;28;20018;-70
2021/05/27 04:17:31;;;;;;;0.10;0.10;;;;;;;8.88;93.52;100771.97;10560753;28;20429;-69
2021/05/27 04:22:32;;;;;;;0.10;0.10;;;;;;;8.87;93.63;100773.78;10552501;28;20019;-69
2021/05/27 04:27:32;;;;;;;0.10;0.10;;;;;;;8.93;92.86;100778.53;10560479;28;20035;-70
2021/05/27 04:37:52;;;;;;;0.10;0.10;;;;;;;9.00;93.55;100781.41;10549263;28;20028;-70
2021/05/27 04:42:52;;;;;;;0.03;0.03;;;;;;;8.99;93.28;100783.22;10553737;28;20032;-69
2021/05/27 04:47:53;;;;;;;0.00;0.00;;;;;;;8.97;93.21;100784.34;10562560;28;20386;-70
2021/05/27 04:52:53;;;;;;;0.00;0.00;;;;;;;9.00;93.11;100789.38;10547111;28;20018;-69
2021/05/27 04:57:53;;;;;;;0.00;0.00;;;;;;;9.02;93.45;100793.56;10556468;28;20015;-69
2021/05/27 05:02:59;;;;;;;0.10;0.10;;;;;;;9.10;93.72;100799.94;10548901;28;20045;-69
2021/05/27 05:07:59;;;;;;;0.10;0.10;;;;;;;9.18;92.48;100805.34;10551279;28;20058;-69
2021/05/27 05:13:00;;;;;;;0.10;0.10;;;;;;;9.29;92.74;100819.25;10541621;28;20055;-69
2021/05/27 05:18:12;;;;;;;0.10;0.10;;;;;;;9.42;93.32;100824.16;10559122;28;20028;-69
2021/05/27 05:23:12;;;;;;;0.10;0.10;;;;;;;9.56;92.79;100837.94;10550433;28;20020;-69
2021/05/27 05:28:14;;;;;;;0.10;0.10;;;;;;;9.61;92.00;100828.50;10547757;28;20015;-69
2021/05/27 05:33:14;;;;;;;0.08;0.08;;;;;;;9.66;92.43;100836.88;10551615;28;20494;-69
2021/05/27 05:38:15;;;;;;;0.10;0.10;;;;;;;9.73;92.42;100845.06;10550425;28;20023;-69
2021/05/27 05:43:15;;;;;;;0.10;0.10;;;;;;;9.77;91.97;100848.25;10552436;28;20386;-69
2021/05/27 05:48:16;;;;;;;0.10;0.10;;;;;;;9.84;92.54;100849.31;10549971;28;20019;-69
2021/05/27 05:53:19;;;;;;;0.10;0.10;;;;;;;9.94;92.25;100866.03;10542332;28;20267;-69
2021/05/27 05:58:20;;;;;;;0.10;0.10;;;;;;;10.10;92.18;100862.66;10550068;28;20264;-69
2021/05/27 06:03:21;;;;;;;0.10;0.10;;;;;;;10.28;91.47;100865.31;10543553;28;20446;-69
2021/05/27 06:08:21;;;;;;;0.10;0.10;;;;;;;10.47;90.81;100877.56;10570966;28;20023;-69
2021/05/27 06:13:22;;;;;;;0.10;0.10;;;;;;;10.73;90.61;100889.03;10557698;28;20016;-70
2021/05/27 06:18:22;;;;;;;0.10;0.10;;;;;;;10.78;89.27;100888.56;10553968;28;20142;-70
2021/05/27 06:23:22;;;;;;;0.10;0.10;;;;;;;10.70;89.58;100901.84;10556340;28;20290;-70
2021/05/27 06:28:23;;;;;;;0.10;0.10;;;;;;;10.76;90.22;100901.22;10550312;28;20100;-69
2021/05/27 06:33:24;;;;;;;0.10;0.10;;;;;;;11.03;89.27;100910.84;10563150;28;20019;-70
2021/05/27 06:38:24;;;;;;;0.10;0.10;;;;;;;11.36;87.69;100918.97;10560407;28;20020;-70
2021/05/27 06:43:24;;;;;;;0.10;0.10;;;;;;;11.62;86.68;100925.03;10551577;28;20054;-71
2021/05/27 06:48:24;;;;;;;0.10;0.10;;;;;;;11.65;86.16;100916.69;10567209;28;20027;-70
2021/05/27 06:53:25;;;;;;;0.10;0.10;;;;;;;11.65;86.20;100929.22;10564040;28;20023;-71
2021/05/27 06:58:25;;;;;;;0.10;0.10;;;;;;;11.46;85.40;100932.97;10547911;28;20498;-71
2021/05/27 07:03:26;;;;;;;0.10;0.10;;;;;;;11.29;86.21;100940.94;10563566;28;20024;-71
2021/05/27 07:08:26;;;;;;;0.10;0.10;;;;;;;11.28;86.65;100944.59;10560492;28;20497;-71
2021/05/27 07:13:26;;;;;;;0.10;0.10;;;;;;;11.31;87.13;100952.31;10560424;28;20424;-70
2021/05/27 07:18:27;;;;;;;0.10;0.10;;;;;;;11.35;87.26;100954.66;10564290;28;20024;-71
2021/05/27 07:23:27;;;;;;;0.10;0.10;;;;;;;11.28;86.44;100957.94;10554713;28;20043;-71
2021/05/27 07:28:27;;;;;;;0.10;0.10;;;;;;;11.35;86.47;100962.63;10553992;28;20018;-71
2021/05/27 07:33:28;;;;;;;0.10;0.10;;;;;;;11.41;86.38;100967.34;10556821;28;20410;-71
2021/05/27 07:38:28;;;;;;;0.10;0.10;;;;;;;11.48;86.08;100976.34;10568129;28;20080;-71
2021/05/27 07:43:28;;;;;;;0.10;0.10;;;;;;;11.66;86.33;100971.72;10554314;28;20020;-71
2021/05/27 07:48:29;;;;;;;0.00;0.00;;;;;;;11.62;86.13;100980.22;10548199;28;20096;-71
2021/05/27 07:53:30;;;;;;;0.10;0.10;;;;;;;11.49;86.64;100981.53;10564823;28;20382;-71
2021/05/27 07:58:30;;;;;;;0.10;0.10;;;;;;;11.45;86.30;100988.16;10560837;28;20258;-71
2021/05/27 08:03:31;;;;;;;0.10;0.10;;;;;;;11.63;87.00;100993.41;10556503;28;20020;-71
2021/05/27 08:08:32;;;;;;;0.10;0.10;;;;;;;11.91;85.89;100995.84;10547374;22;21117;-65
2021/05/27 08:13:32;;;;;;;0.10;0.10;;;;;;;12.09;84.22;101001.88;10550752;28;20153;-65
2021/05/27 08:18:33;;;;;;;0.10;0.10;;;;;;;12.13;84.29;101013.06;10528132;28;20062;-65
2021/05/27 08:23:33;;;;;;;0.10;0.10;;;;;;;12.02;83.77;101022.25;10499753;28;20031;-66
2021/05/27 08:28:33;;;;;;;0.10;0.10;;;;;;;11.84;84.51;101025.00;10515018;28;20115;-66
2021/05/27 08:33:34;;;;;;;0.10;0.10;;;;;;;11.71;84.28;101025.44;10532883;28;20020;-65
2021/05/27 08:38:35;;;;;;;0.10;0.10;;;;;;;11.67;85.93;101040.13;10532872;28;20729;-66
2021/05/27 08:43:35;;;;;;;0.10;0.10;;;;;;;11.64;86.84;101053.78;10532616;28;20103;-65
2021/05/27 08:48:35;;;;;;;0.10;0.10;;;;;;;11.70;86.83;101050.47;10500927;28;20115;-64
2021/05/27 08:53:36;;;;;;;0.10;0.10;;;;;;;11.71;86.30;101057.47;10532166;28;20016;-64
2021/05/27 08:58:36;;;;;;;0.10;0.10;;;;;;;11.62;86.35;101062.94;10532519;28;20020;-64
2021/05/27 09:03:39;;;;;;;0.10;0.10;;;;;;;11.55;85.95;101068.91;10504843;28;20074;-66
2021/05/27 09:08:40;;;;;;;0.10;0.10;;;;;;;11.56;87.04;101069.75;10491075;28;20356;-66
2021/05/27 09:13:51;;;;;;;0.10;0.10;;;;;;;11.62;86.21;101092.28;10489952;28;20103;-66
2021/05/27 09:18:51;;;;;;;0.10;0.10;;;;;;;11.75;85.47;101090.00;10498080;28;20036;-66
2021/05/27 09:23:52;;;;;;;0.10;0.10;;;;;;;12.00;85.22;101101.66;10531767;28;20024;-66
2021/05/27 09:29:09;;;;;;;0.10;0.10;;;;;;;12.17;83.18;101110.56;10532478;28;20024;-65
2021/05/27 09:34:11;;;;;;;0.10;0.10;;;;;;;12.27;82.44;101123.75;10531514;28;20023;-66
2021/05/27 09:39:11;;;;;;;0.10;0.10;;;;;;;12.41;78.30;101128.47;10531513;28;20374;-66
2021/05/27 09:44:12;;;;;;;0.10;0.10;;;;;;;12.76;77.96;101137.22;10501299;28;20073;-65
2021/05/27 09:49:13;;;;;;;0.10;0.10;;;;;;;13.10;76.33;101140.56;10494155;28;20259;-66
2021/05/27 09:54:13;;;;;;;0.10;0.10;;;;;;;13.66;77.70;101146.00;10518985;28;20374;-66
2021/05/27 09:59:14;;;;;;;0.10;0.10;;;;;;;13.94;73.37;101153.63;10520842;28;20270;-66
2021/05/27 10:04:16;;;;;;;0.10;0.10;;;;;;;13.97;71.26;101164.00;10533735;28;20008;-66
2021/05/27 10:09:18;;;;;;;0.10;0.10;;;;;;;13.60;74.18;101170.78;10496690;28;20035;-66
2021/05/27 10:14:21;;;;;;;0.10;0.10;;;;;;;13.43;74.35;101183.34;10478420;28;20020;-66
2021/05/27 10:19:21;;;;;;;0.10;0.10;;;;;;;13.66;75.78;101172.78;10496817;28;20372;-66
2021/05/27 10:24:21;;;;;;;0.10;0.10;;;;;;;13.91;72.97;101178.91;10515413;28;20100;-66
2021/05/27 10:29:24;;;;;;;0.10;0.10;;;;;;;14.36;72.14;101180.06;10496416;28;20802;-66
2021/05/27 10:34:45;;;;;;;0.10;0.10;;;;;;;14.72;67.82;101198.34;10527136;28;20425;-66
2021/05/27 10:39:46;;;;;;;0.13;0.13;;;;;;;15.09;65.53;101204.75;10522858;28;20063;-66
2021/05/27 10:45:07;;;;;;;0.10;0.10;;;;;;;15.60;64.71;101200.47;10519055;28;20075;-66
2021/05/27 10:50:09;;;;;;;0.10;0.10;;;;;;;14.81;65.78;101216.03;10520412;28;20049;-66
2021/05/27 10:55:46;;;;;;;0.10;0.10;;;;;;;14.33;68.95;101227.81;10528988;28;20032;-66
2021/05/27 11:00:48;;;;;;;0.10;0.10;;;;;;;14.20;69.58;101228.38;10518123;28;20024;-66
2021/05/27 11:06:29;;;;;;;0.10;0.10;;;;;;;13.81;69.75;101259.41;10509307;28;20044;-66
2021/05/27 11:11:49;;;;;;;0.10;0.10;;;;;;;13.45;72.67;101248.25;10513250;28;20048;-66
2021/05/27 11:17:35;;;;;;;0.10;0.10;;;;;;;13.65;72.25;101256.78;10525689;28;20052;-66
2021/05/27 11:22:55;;;;;;;0.10;0.10;;;;;;;13.28;72.86;101266.13;10508222;28;20039;-65
2021/05/27 11:28:02;;;;;;;0.10;0.10;;;;;;;13.10;74.95;101268.09;10502470;28;20494;-66
2021/05/27 11:33:25;;;;;;;0.10;0.10;;;;;;;13.77;74.86;101270.66;10483114;28;20035;-66
2021/05/27 11:38:37;;;;;;;0.10;0.10;;;;;;;14.77;69.95;101273.69;10497692;28;20041;-66
2021/05/27 11:43:40;;;;;;;0.10;0.10;;;;;;;15.60;65.65;101290.94;10505598;28;20106;-66
2021/05/27 11:48:56;;;;;;;0.10;0.10;;;;;;;15.82;62.64;101300.84;10505792;28;20039;-66
2021/05/27 11:54:00;;;;;;;0.10;0.10;;;;;;;16.12;61.52;101289.28;10514175;28;20024;-66
2021/05/27 11:59:01;;;;;;;0.10;0.10;;;;;;;16.10;60.64;101299.38;10510737;28;20025;-66
2021/05/27 12:04:09;;;;;;;0.10;0.10;;;;;;;15.41;62.16;101297.59;10513953;28;20008;-66
2021/05/27 12:09:12;;;;;;;0.10;0.10;;;;;;;14.96;64.86;101304.63;10505675;28;20386;-66
2021/05/27 12:14:13;;;;;;;0.10;0.10;;;;;;;15.15;65.34;101322.97;10495512;28;20029;-66
2021/05/27 12:19:14;;;;;;;0.10;0.10;;;;;;;15.65;59.65;101326.13;10526145;28;20021;-66
2021/05/27 12:24:30;;;;;;;0.10;0.10;;;;;;;15.92;62.56;101338.19;10515175;28;20375;-66
2021/05/27 12:29:31;;;;;;;0.10;0.10;;;;;;;16.08;60.91;101329.13;10519966;28;20114;-66
2021/05/27 12:34:31;;;;;;;0.10;0.10;;;;;;;16.26;60.38;101347.56;10520447;28;20098;-66
2021/05/27 12:39:36;;;;;;;0.00;0.00;;;;;;;16.09;61.44;101352.31;10519976;28;20051;-66
2021/05/27 12:44:41;;;;;;;0.10;0.10;;;;;;;15.86;63.61;101356.88;10520169;28;20020;-66
2021/05/27 12:49:42;;;;;;;0.10;0.10;;;;;;;15.46;61.87;101362.34;10509444;28;20023;-66
2021/05/27 12:54:42;;;;;;;0.10;0.10;;;;;;;15.15;64.92;101379.31;10504573;28;20035;-66
2021/05/27 12:59:56;;;;;;;0.10;0.10;;;;;;;14.62;71.53;101398.78;10506294;28;20372;-66
2021/05/27 13:05:11;;;;;;;;;;;;;;;14.13;73.12;101393.47;10520855;28;20024;-66
2021/05/27 13:10:32;;;;;;;0.10;0.10;;;;;;;13.71;73.25;101389.94;10508131;28;19916;-66
2021/05/27 13:15:43;;;;;;;0.10;0.10;;;;;;;13.76;72.23;101398.34;10497481;28;20021;-66
2021/05/27 13:20:59;;;;;;;0.10;0.10;;;;;;;13.91;71.75;101409.22;10511682;28;20027;-66
2021/05/27 13:26:14;;;;;;;0.00;0.00;;;;;;;13.90;70.79;101415.56;10522233;28;20062;-66
2021/05/27 13:31:14;;;;;;;0.10;0.10;;;;;;;14.04;71.32;101419.41;10521205;28;20074;-66
2021/05/27 13:36:22;;;;;;;0.10;0.10;;;;;;;14.24;72.15;101428.78;10528461;28;20431;-66
2021/05/27 13:41:22;;;;;;;0.10;0.10;;;;;;;14.22;70.09;101438.00;10521638;28;20028;-66
2021/05/27 13:46:23;;;;;;;0.10;0.10;;;;;;;14.13;72.60;101441.69;10527734;28;20091;-66
2021/05/27 13:51:23;;;;;;;0.10;0.10;;;;;;;14.14;73.90;101448.75;10530970;28;20034;-66
2021/05/27 13:56:23;;;;;;;0.10;0.10;;;;;;;14.13;73.00;101450.56;10528126;28;20095;-66
2021/05/27 14:01:24;;;;;;;0.10;0.10;;;;;;;14.20;73.06;101464.13;10516567;28;20390;-66
2021/05/27 14:06:24;;;;;;;0.10;0.10;;;;;;;14.16;72.83;101468.13;10526441;28;20020;-66
2021/05/27 14:11:24;;;;;;;0.10;0.10;;;;;;;13.89;74.88;101471.97;10556010;22;20031;-67
2021/05/27 14:16:25;;;;;;;0.10;0.10;;;;;;;13.56;75.61;101478.09;10538454;28;20020;-69
2021/05/27 14:21:25;;;;;;;0.10;0.10;;;;;;;13.39;76.30;101486.25;10508282;28;20025;-67
2021/05/27 14:26:25;;;;;;;0.10;0.10;;;;;;;13.29;77.10;101492.56;10534139;28;20024;-69
2021/05/27 14:31:26;;;;;;;0.10;0.10;;;;;;;13.22;78.46;101498.66;10500092;28;20443;-69
2021/05/27 14:36:27;;;;;;;0.10;0.10;;;;;;;13.18;78.26;101499.97;10495587;28;20024;-67
2021/05/27 14:41:28;;;;;;;0.10;0.10;;;;;;;13.11;78.68;101508.63;10501980;28;20158;-69
2021/05/27 14:46:28;;;;;;;0.10;0.10;;;;;;;13.04;79.23;101528.16;10477790;28;20039;-67
2021/05/27 14:51:28;;;;;;;0.10;0.10;;;;;;;13.03;78.51;101524.66;10516061;28;20253;-68
2021/05/27 14:56:29;;;;;;;0.10;0.10;;;;;;;13.03;78.60;101532.69;10536365;28;20016;-68
2021/05/27 15:01:29;;;;;;;0.10;0.10;;;;;;;13.10;78.41;101536.38;10536329;28;20122;-68
2021/05/27 15:06:30;;;;;;;0.10;0.10;;;;;;;13.27;78.62;101548.06;10521680;28;20258;-68
2021/05/27 15:11:31;;;;;;;0.10;0.10;;;;;;;13.27;76.78;101553.41;10521938;28;20028;-68
2021/05/27 15:16:32;;;;;;;0.10;0.10;;;;;;;13.39;78.53;101562.00;10494951;28;20099;-68
2021/05/27 15:21:33;;;;;;;0.10;0.10;;;;;;;13.65;78.92;101555.75;10529778;28;20020;-68
2021/05/27 15:26:33;;;;;;;0.10;0.10;;;;;;;13.92;76.98;101563.53;10531462;28;20012;-68
2021/05/27 15:31:33;;;;;;;0.10;0.10;;;;;;;14.40;76.41;101570.00;10493687;28;20031;-68
2021/05/27 15:36:37;;;;;;;0.10;0.10;;;;;;;14.56;75.03;101581.75;10494156;28;20021;-68
2021/05/27 15:41:38;;;;;;;0.10;0.10;;;;;;;14.55;75.83;101578.25;10493740;28;20032;-68
2021/05/27 15:46:38;;;;;;;0.10;0.10;;;;;;;14.43;76.17;101604.50;10498412;28;20027;-68
2021/05/27 15:51:39;;;;;;;0.10;0.10;;;;;;;14.14;77.63;101615.69;10493007;28;20036;-67
2021/05/27 15:56:40;;;;;;;0.10;0.10;;;;;;;13.63;77.26;101622.00;10493108;28;20545;-68
2021/05/27 16:01:40;;;;;;;0.10;0.10;;;;;;;13.14;78.63;101612.63;10503836;28;20479;-68
2021/05/27 16:06:41;;;;;;;0.10;0.10;;;;;;;12.95;80.18;101618.19;10510309;28;20055;-68
2021/05/27 16:11:41;;;;;;;0.10;0.10;;;;;;;12.88;79.48;101630.50;10514128;28;20479;-71
2021/05/27 16:16:42;;;;;;;0.10;0.10;;;;;;;12.76;79.26;101629.06;10522023;28;20626;-71
2021/05/27 16:21:42;;;;;;;0.10;0.10;;;;;;;12.68;80.12;101629.81;10516530;28;20389;-71
2021/05/27 16:26:42;;;;;;;0.10;0.10;;;;;;;12.64;80.26;101647.16;10504891;28;20426;-71
2021/05/27 16:31:43;;;;;;;0.10;0.10;;;;;;;12.71;80.69;101653.56;10515638;28;20407;-71
2021/05/27 16:42:02;;;;;;;0.10;0.10;;;;;;;13.07;77.23;101670.44;10506572;28;20059;-71
2021/05/27 16:47:02;;;;;;;0.10;0.10;;;;;;;13.07;77.20;101669.59;10510234;28;20060;-71
2021/05/27 16:52:08;;;;;;;0.10;0.10;;;;;;;12.98;77.25;101679.38;10488167;28;20054;-71
2021/05/27 16:57:08;;;;;;;0.10;0.10;;;;;;;12.92;77.90;101682.69;10509974;28;20025;-71
2021/05/27 17:02:09;;;;;;;0.10;0.10;;;;;;;12.82;79.39;101692.59;10511900;28;20375;-71
2021/05/27 17:07:09;;;;;;;0.10;0.10;;;;;;;12.66;80.65;101694.13;10510290;28;20262;-71
2021/05/27 17:12:09;;;;;;;0.10;0.10;;;;;;;12.55;79.41;101702.34;10506891;28;20028;-71
2021/05/27 17:17:10;;;;;;;0.10;0.10;;;;;;;12.40;79.53;101706.53;10520123;28;20108;-71
2021/05/27 17:22:10;;;;;;;0.10;0.10;;;;;;;12.27;79.59;101706.03;10504062;28;20031;-70
2021/05/27 17:27:10;;;;;;;0.10;0.10;;;;;;;12.19;80.98;101715.66;10505899;28;20392;-71
2021/05/27 17:32:11;;;;;;;0.10;0.10;;;;;;;12.11;80.31;101722.72;10483395;28;20020;-71
2021/05/27 17:37:11;;;;;;;0.10;0.10;;;;;;;11.93;83.54;101736.00;10510966;28;20418;-71
2021/05/27 17:42:11;;;;;;;0.10;0.10;;;;;;;11.74;84.43;101744.84;10510730;28;20257;-70
2021/05/27 17:47:11;;;;;;;0.10;0.10;;;;;;;11.62;85.32;101752.19;10517225;28;20032;-70
2021/05/27 17:52:12;;;;;;;0.10;0.10;;;;;;;11.58;85.23;101764.16;10511976;28;20467;-70
2021/05/27 17:57:12;;;;;;;0.10;0.10;;;;;;;11.47;84.38;101761.63;10501236;28;20479;-71
2021/05/27 18:02:12;;;;;;;0.10;0.10;;;;;;;11.40;83.66;101784.50;10514145;28;20526;-70
2021/05/27 18:07:13;;;;;;;0.10;0.10;;;;;;;11.17;82.66;101790.13;10513064;28;20462;-69
2021/05/27 18:12:13;;;;;;;0.10;0.10;;;;;;;11.04;84.46;101797.56;10518457;28;20559;-69
2021/05/27 18:17:14;;;;;;;0.10;0.10;;;;;;;10.98;86.67;101796.28;10519749;28;20305;-68
2021/05/27 18:22:14;;;;;;;0.10;0.10;;;;;;;10.96;87.30;101797.41;10517279;28;20032;-68
2021/05/27 18:27:16;;;;;;;0.10;0.10;;;;;;;10.88;87.33;101804.28;10516388;28;20044;-68
2021/05/27 18:32:17;;;;;;;0.10;0.10;;;;;;;10.84;87.13;101807.34;10496083;28;20120;-68
2021/05/27 18:37:17;;;;;;;0.10;0.10;;;;;;;10.82;87.20;101811.94;10513483;28;20475;-68
2021/05/27 18:42:18;;;;;;;0.10;0.10;;;;;;;10.77;88.14;101820.38;10512540;28;20019;-68
2021/05/27 18:47:18;;;;;;;0.10;0.10;;;;;;;10.75;89.09;101830.31;10524737;28;20054;-68
2021/05/27 18:52:19;;;;;;;0.10;0.10;;;;;;;10.72;88.32;101827.94;10520933;28;20012;-68
2021/05/27 18:57:20;;;;;;;0.10;0.10;;;;;;;10.72;88.61;101835.09;10521006;28;20016;-69
2021/05/27 19:02:20;;;;;;;0.10;0.10;;;;;;;10.72;88.62;101853.72;10523685;28;20099;-68
2021/05/27 19:07:21;;;;;;;0.10;0.10;;;;;;;10.68;88.64;101860.31;10522122;28;20031;-68
2021/05/27 19:12:21;;;;;;;0.10;0.10;;;;;;;10.64;87.84;101859.72;10521323;28;20741;-68
2021/05/27 19:17:21;;;;;;;0.10;0.10;;;;;;;10.62;87.81;101869.69;10513855;28;20107;-68
2021/05/27 19:22:22;;;;;;;0.10;0.10;;;;;;;10.58;86.69;101870.91;10518635;28;20258;-68
2021/05/27 19:27:22;;;;;;;0.10;0.10;;;;;;;10.53;86.10;101879.34;10526560;28;20266;-68
2021/05/27 19:32:22;;;;;;;0.10;0.10;;;;;;;10.47;86.03;101889.66;10498815;28;20025;-68
2021/05/27 19:37:22;;;;;;;0.10;0.10;;;;;;;10.42;86.04;101898.06;10494633;28;20163;-69
2021/05/27 19:42:23;;;;;;;0.10;0.10;;;;;;;10.42;84.42;101908.72;10496314;28;20493;-68
2021/05/27 19:47:24;;;;;;;0.10;0.10;;;;;;;10.43;84.84;101919.22;10496772;28;20028;-68
2021/05/27 19:52:24;;;;;;;0.13;0.13;;;;;;;10.44;85.36;101933.38;10495712;28;20093;-69
2021/05/27 19:57:35;;;;;;;0.10;0.10;;;;;;;10.42;85.08;101938.84;10495537;28;20649;-68
2021/05/27 20:02:35;;;;;;;0.13;0.13;;;;;;;10.43;85.37;101937.88;10494858;28;20035;-68
2021/05/27 20:07:37;;;;;;;0.10;0.10;;;;;;;10.43;86.24;101953.84;10495108;28;20016;-70
2021/05/27 20:12:38;;;;;;;0.10;0.10;;;;;;;10.45;86.47;101955.56;10549330;22;20378;-65
2021/05/27 20:17:38;;;;;;;0.10;0.10;;;;;;;10.46;87.28;101954.56;10573733;28;20031;-67
2021/05/27 20:22:39;;;;;;;0.10;0.10;;;;;;;10.46;88.09;101967.88;10575914;28;20068;-66
2021/05/27 20:27:41;;;;;;;0.10;0.10;;;;;;;10.50;87.71;101972.84;10577479;28;20066;-66
2021/05/27 20:32:42;;;;;;;0.10;0.10;;;;;;;10.56;87.44;101977.63;10575622;28;20037;-66
2021/05/27 20:37:43;;;;;;;0.10;0.10;;;;;;;10.58;87.37;101980.16;10576369;28;20088;-66
2021/05/27 20:42:44;;;;;;;0.10;0.10;;;;;;;10.63;87.22;101988.59;10557694;28;20543;-66
2021/05/27 20:47:46;;;;;;;0.10;0.10;;;;;;;10.69;87.27;102003.22;10575948;28;20069;-66
2021/05/27 20:52:48;;;;;;;0.10;0.10;;;;;;;10.74;85.05;102006.34;10575536;28;20023;-66
2021/05/27 20:57:48;;;;;;;0.03;0.03;;;;;;;10.73;85.15;102007.31;10576154;28;20477;-66
2021/05/27 21:02:49;;;;;;;0.10;0.10;;;;;;;10.65;85.20;102002.66;10575226;28;20051;-66
2021/05/27 21:07:49;;;;;;;0.10;0.10;;;;;;;10.60;85.32;102002.19;10557637;28;20513;-66
2021/05/27 21:12:50;;;;;;;0.10;0.10;;;;;;;10.53;85.61;102004.53;10575204;28;20165;-66
2021/05/27 21:17:50;;;;;;;0.10;0.10;;;;;;;10.48;86.32;102011.22;10557320;28;20019;-66
2021/05/27 21:22:50;;;;;;;0.10;0.10;;;;;;;10.42;86.38;102007.25;10575189;28;20024;-66
2021/05/27 21:27:50;;;;;;;0.10;0.10;;;;;;;10.38;86.24;102011.13;10557669;28;20028;-66
2021/05/27 21:32:51;;;;;;;0.10;0.10;;;;;;;10.35;86.87;102016.72;10575442;28;20293;-66
2021/05/27 21:37:51;;;;;;;0.10;0.10;;;;;;;10.30;87.57;102013.63;10557076;28;20030;-66
2021/05/27 21:42:51;;;;;;;0.10;0.10;;;;;;;10.27;88.21;102025.38;10575534;28;20036;-66
2021/05/27 21:47:52;;;;;;;0.10;0.10;;;;;;;10.24;88.41;102028.25;10583080;28;20681;-66
2021/05/27 21:52:52;;;;;;;0.10;0.10;;;;;;;10.19;89.03;102035.78;10583684;28;20680;-66
2021/05/27 21:57:52;;;;;;;0.10;0.10;;;;;;;10.13;88.76;102039.78;10565803;28;20282;-66
2021/05/27 22:02:53;;;;;;;0.10;0.10;;;;;;;10.06;88.06;102043.91;10583462;28;20023;-66
2021/05/27 22:07:53;;;;;;;0.05;0.05;;;;;;;9.92;88.38;102045.06;10583864;28;20102;-66
2021/05/27 22:12:53;;;;;;;0.10;0.10;;;;;;;9.77;88.08;102050.78;10583211;28;20717;-66
2021/05/27 22:17:56;;;;;;;0.00;0.00;;;;;;;9.64;87.71;102059.75;10582897;28;20023;-66
2021/05/27 22:22:57;;;;;;;0.10;0.10;;;;;;;9.52;87.36;102061.56;10583008;28;20019;-66
2021/05/27 22:27:58;;;;;;;0.10;0.10;;;;;;;9.42;87.37;102065.91;10583236;28;20025;-66
2021/05/27 22:32:58;;;;;;;0.10;0.10;;;;;;;9.34;87.67;102067.50;10582924;28;20036;-66
2021/05/27 22:37:58;;;;;;;0.10;0.10;;;;;;;9.24;88.93;102072.69;10564470;28;20120;-66
2021/05/27 22:42:59;;;;;;;0.10;0.10;;;;;;;9.14;90.27;102069.91;10582553;28;20363;-66
2021/05/27 22:47:59;;;;;;;0.10;0.10;;;;;;;9.04;89.97;102066.25;10582254;28;20669;-66
2021/05/27 22:52:59;;;;;;;0.10;0.10;;;;;;;8.93;91.50;102069.78;10581908;28;20466;-66
2021/05/27 22:58:00;;;;;;;0.00;0.00;;;;;;;8.92;92.48;102077.84;10581540;28;20027;-66
2021/05/27 23:03:00;;;;;;;0.10;0.10;;;;;;;8.90;92.15;102074.44;10581282;28;20480;-66
2021/05/27 23:08:02;;;;;;;0.10;0.10;;;;;;;8.86;93.17;102081.81;10581956;28;20085;-66
2021/05/27 23:13:02;;;;;;;0.00;0.00;;;;;;;8.84;93.32;102083.72;10580962;28;20055;-66
2021/05/27 23:18:02;;;;;;;0.10;0.10;;;;;;;8.80;93.43;102087.59;10581291;28;20030;-66
2021/05/27 23:23:03;;;;;;;0.10;0.10;;;;;;;8.75;92.93;102087.94;10580894;28;20401;-66
2021/05/27 23:28:03;;;;;;;0.10;0.10;;;;;;;8.75;92.71;102093.25;10581380;28;20026;-66